Riverside, California
Current Conditions -  °F | °C
As of 1:53 PM on Sunday 23 Nov 2014 (Local Time) from KRAL Reporting Station
Clear Clear  
Wind Chill: 76°   Ceiling: Unl
Heat Index: 76°   Visibility: 10mi
Dew Point:   Wind: 17mph
Humidity: 6%   Direction: 20°NNE
Pressure: 30.07"   Gusts: 25mph
Location:  33.98°N, 117.37°W
Report Text: KRAL 232153Z 02015G22KT 10SM CLR 24/M16 A3007 RMK AO2 PK WND 03029/2109 SLP170 T02441161
Loading
Personal Weather Stations






























Interactive Weather Map New forecast layout! Learn more

10-Day Weather Forecast

Advertisements
Track Severe Weather on mobile